createdAt,value
2018-10-01T00:02:06.549Z,97635.00
2018-10-01T00:06:08.851Z,97636.00
2018-10-01T00:10:11.141Z,97639.00
2018-10-01T00:14:13.474Z,97635.00
2018-10-01T00:18:15.745Z,97644.00
2018-10-01T00:22:23.750Z,97644.00
2018-10-01T00:26:26.776Z,97637.00
2018-10-01T00:30:30.641Z,97633.00
2018-10-01T00:34:33.039Z,97631.00
2018-10-01T00:38:35.411Z,97620.00
2018-10-01T00:42:37.914Z,97623.00
2018-10-01T00:46:40.285Z,97628.00
2018-10-01T00:50:42.641Z,97633.00
2018-10-01T00:54:44.913Z,97623.00
2018-10-01T00:58:47.274Z,97620.00
2018-10-01T01:02:49.590Z,97617.00
2018-10-01T01:06:51.895Z,97607.00
2018-10-01T01:10:54.204Z,97609.00
2018-10-01T01:14:56.541Z,97617.00
2018-10-01T01:18:58.929Z,97610.00
2018-10-01T01:23:01.279Z,97610.00
2018-10-01T01:27:03.565Z,97614.00
2018-10-01T01:31:05.953Z,97611.00
2018-10-01T01:35:08.251Z,97609.00
2018-10-01T01:39:11.145Z,97605.00
2018-10-01T01:43:13.438Z,97605.00
2018-10-01T01:47:15.779Z,97594.00
2018-10-01T01:51:18.094Z,97597.00
2018-10-01T01:55:20.407Z,97599.00
2018-10-01T01:59:22.679Z,97596.00
2018-10-01T02:03:25.037Z,97592.00
2018-10-01T02:07:27.428Z,97580.00
2018-10-01T02:11:29.780Z,97588.00
2018-10-01T02:15:32.093Z,97590.00
2018-10-01T02:19:34.467Z,97595.00
2018-10-01T02:23:36.755Z,97597.00
2018-10-01T02:27:39.033Z,97602.00
2018-10-01T02:31:41.303Z,97594.00
2018-10-01T02:35:43.593Z,97596.00
2018-10-01T02:39:45.880Z,97598.00
2018-10-01T02:43:48.175Z,97594.00
2018-10-01T02:47:50.552Z,97592.00
2018-10-01T02:51:58.333Z,97588.00
2018-10-01T02:56:00.676Z,97594.00
2018-10-01T03:00:02.999Z,97596.00
2018-10-01T03:04:05.237Z,97600.00
2018-10-01T03:08:07.579Z,97596.00
2018-10-01T03:12:09.909Z,97598.00
2018-10-01T03:16:12.149Z,97608.00
2018-10-01T03:20:14.403Z,97606.00
2018-10-01T03:24:17.264Z,97603.00
2018-10-01T03:28:19.669Z,97601.00
2018-10-01T03:32:21.938Z,97613.00
2018-10-01T03:36:24.703Z,97613.00
2018-10-01T03:40:27.090Z,97603.00
2018-10-01T03:44:29.383Z,97607.00
2018-10-01T03:48:31.680Z,97603.00
2018-10-01T03:52:34.039Z,97608.00
2018-10-01T03:56:36.335Z,97611.00
2018-10-01T04:00:38.573Z,97627.00
2018-10-01T04:04:40.964Z,97620.00
2018-10-01T04:08:43.290Z,97618.00
2018-10-01T04:12:45.593Z,97615.00
2018-10-01T04:16:47.940Z,97617.00
2018-10-01T04:20:50.217Z,97620.00
2018-10-01T04:24:52.507Z,97623.00
2018-10-01T04:28:54.849Z,97633.00
2018-10-01T04:32:57.298Z,97633.00
2018-10-01T04:36:59.632Z,97628.00
2018-10-01T04:41:01.960Z,97638.00
2018-10-01T04:45:04.390Z,97636.00
2018-10-01T04:49:07.408Z,97656.00
2018-10-01T04:53:09.733Z,97661.00
2018-10-01T04:57:12.077Z,97667.00
2018-10-01T05:01:14.397Z,97659.00
2018-10-01T05:05:16.758Z,97673.00
2018-10-01T05:09:19.124Z,97682.00
2018-10-01T05:13:21.437Z,97674.00
2018-10-01T05:17:23.770Z,97673.00
2018-10-01T05:21:26.113Z,97677.00
2018-10-01T05:25:28.472Z,97674.00
2018-10-01T05:29:30.734Z,97678.00
2018-10-01T05:33:33.143Z,97669.00
2018-10-01T05:37:35.508Z,97678.00
2018-10-01T05:41:37.831Z,97694.00
2018-10-01T05:45:40.161Z,97693.00
2018-10-01T05:49:42.544Z,97698.00
2018-10-01T05:53:44.941Z,97704.00
2018-10-01T05:57:47.410Z,97710.00
2018-10-01T06:01:49.718Z,97705.00
2018-10-01T06:05:52.047Z,97723.00
2018-10-01T06:09:54.402Z,97722.00
2018-10-01T06:13:56.744Z,97718.00
2018-10-01T06:17:59.227Z,97732.00
2018-10-01T06:22:01.513Z,97738.00
2018-10-01T06:26:03.819Z,97734.00
2018-10-01T06:30:06.228Z,97743.00
2018-10-01T06:34:08.508Z,97744.00
2018-10-01T06:38:10.858Z,97741.00
2018-10-01T06:42:13.201Z,97739.00
2018-10-01T06:46:15.512Z,97735.00
2018-10-01T06:50:17.862Z,97739.00
2018-10-01T06:54:20.188Z,97758.00
2018-10-01T06:58:22.458Z,97761.00
2018-10-01T07:02:24.837Z,97772.00
2018-10-01T07:06:27.210Z,97776.00
2018-10-01T07:10:29.583Z,97783.00
2018-10-01T07:14:31.881Z,97795.00
2018-10-01T07:18:34.271Z,97795.00
2018-10-01T07:22:36.743Z,97799.00
2018-10-01T07:26:38.983Z,97802.00
2018-10-01T07:30:41.361Z,97800.00
2018-10-01T07:34:43.752Z,97809.00
2018-10-01T07:38:46.179Z,97810.00
2018-10-01T07:42:48.425Z,97799.00
2018-10-01T07:46:50.810Z,97818.00
2018-10-01T07:50:53.994Z,97804.00
2018-10-01T07:54:56.966Z,97814.00
2018-10-01T07:59:00.166Z,97819.00
2018-10-01T08:03:02.987Z,97824.00
2018-10-01T08:07:06.023Z,97828.00
2018-10-01T08:11:08.941Z,97830.00
2018-10-01T08:15:11.316Z,97838.00
2018-10-01T08:19:13.676Z,97855.00
2018-10-01T08:23:16.336Z,97855.00
2018-10-01T08:27:18.767Z,97856.00
2018-10-01T08:31:21.212Z,97858.00
2018-10-01T08:35:23.978Z,97847.00
2018-10-01T08:39:26.298Z,97861.00
2018-10-01T08:43:29.102Z,97861.00
2018-10-01T08:47:31.597Z,97865.00
2018-10-01T08:51:38.725Z,97866.00
2018-10-01T08:55:41.806Z,97869.00
2018-10-01T08:59:44.661Z,97865.00
2018-10-01T09:03:47.477Z,97875.00
2018-10-01T09:07:50.651Z,97873.00
2018-10-01T09:11:53.602Z,97874.00
2018-10-01T09:16:05.436Z,97881.00
2018-10-01T09:20:08.718Z,97884.00
2018-10-01T09:24:11.365Z,97889.00
2018-10-01T09:28:13.669Z,97893.00
2018-10-01T09:32:16.047Z,97895.00
2018-10-01T09:36:18.393Z,97892.00
2018-10-01T09:40:20.777Z,97896.00
2018-10-01T09:44:23.068Z,97899.00
2018-10-01T09:48:25.442Z,97906.00
2018-10-01T09:52:28.001Z,97914.00
2018-10-01T09:56:31.362Z,97910.00
2018-10-01T10:00:40.041Z,97914.00
2018-10-01T10:04:42.416Z,97914.00
2018-10-01T10:08:44.882Z,97922.00
2018-10-01T10:12:47.278Z,97907.00
2018-10-01T10:16:49.758Z,97914.00
2018-10-01T10:20:52.457Z,97914.00
2018-10-01T10:24:55.273Z,97855.00
2018-10-01T10:28:57.947Z,97915.00
2018-10-01T10:33:00.777Z,97918.00
2018-10-01T10:37:03.949Z,97913.00
2018-10-01T10:41:06.785Z,97928.00
2018-10-01T10:45:10.126Z,97925.00
2018-10-01T10:49:12.427Z,97919.00
2018-10-01T10:53:14.756Z,97918.00
2018-10-01T10:57:17.255Z,97927.00
2018-10-01T11:01:20.311Z,97930.00
2018-10-01T11:05:22.702Z,97933.00
2018-10-01T11:09:25.117Z,97932.00
2018-10-01T11:13:27.387Z,97936.00
2018-10-01T11:17:29.793Z,97924.00
2018-10-01T11:21:32.314Z,97919.00
2018-10-01T11:25:34.626Z,97923.00
2018-10-01T11:29:36.947Z,97929.00
2018-10-01T11:33:39.949Z,97921.00
2018-10-01T11:37:42.237Z,97916.00
2018-10-01T11:41:44.637Z,97930.00
2018-10-01T11:45:47.148Z,97925.00
2018-10-01T11:49:49.417Z,97917.00
2018-10-01T11:53:51.708Z,97916.00
2018-10-01T11:57:54.010Z,97918.00
2018-10-01T12:01:56.661Z,97916.00
2018-10-01T12:05:59.490Z,97904.00
2018-10-01T12:10:01.902Z,97906.00
2018-10-01T12:14:04.308Z,97910.00
2018-10-01T12:18:06.589Z,97912.00
2018-10-01T12:22:10.180Z,97921.00
2018-10-01T12:26:12.904Z,97906.00
2018-10-01T12:30:15.592Z,97914.00
2018-10-01T12:34:18.029Z,97925.00
2018-10-01T12:38:20.367Z,97926.00
2018-10-01T12:42:22.799Z,97923.00
2018-10-01T12:46:25.161Z,97919.00
2018-10-01T12:50:29.511Z,97925.00
2018-10-01T12:54:32.281Z,97930.00
2018-10-01T12:58:34.849Z,97923.00
2018-10-01T13:02:37.641Z,97939.00
2018-10-01T13:06:40.076Z,97936.00
2018-10-01T13:10:42.574Z,97948.00
2018-10-01T13:14:45.010Z,97946.00
2018-10-01T13:18:47.591Z,97945.00
2018-10-01T13:22:49.971Z,97941.00
2018-10-01T13:26:52.491Z,97939.00
2018-10-01T13:30:55.069Z,97945.00
2018-10-01T13:34:57.493Z,97957.00
2018-10-01T13:39:01.101Z,97938.00
2018-10-01T13:43:03.539Z,97947.00
2018-10-01T13:47:06.439Z,97954.00
2018-10-01T13:51:09.125Z,97962.00
2018-10-01T13:55:11.582Z,97975.00
2018-10-01T13:59:14.140Z,97966.00
2018-10-01T14:03:16.511Z,97983.00
2018-10-01T14:07:19.056Z,97990.00
2018-10-01T14:11:21.418Z,97998.00
2018-10-01T14:15:23.793Z,97993.00
2018-10-01T14:19:26.285Z,98004.00
2018-10-01T14:23:28.723Z,98007.00
2018-10-01T14:27:31.099Z,98012.00
2018-10-01T14:31:33.482Z,98008.00
2018-10-01T14:35:36.048Z,98012.00
2018-10-01T14:39:38.432Z,98009.00
2018-10-01T14:43:41.041Z,98009.00
2018-10-01T14:47:43.394Z,98035.00
2018-10-01T14:51:45.848Z,98040.00
2018-10-01T14:55:48.323Z,98084.00
2018-10-01T14:59:50.975Z,98063.00
2018-10-01T15:03:53.768Z,98045.00
2018-10-01T15:07:56.129Z,98048.00
2018-10-01T15:11:58.828Z,98051.00
2018-10-01T15:16:01.170Z,98048.00
2018-10-01T15:20:03.720Z,98042.00
2018-10-01T15:24:06.195Z,98045.00
2018-10-01T15:28:08.623Z,98052.00
2018-10-01T15:32:11.079Z,98055.00
2018-10-01T15:36:13.512Z,98068.00
2018-10-01T15:40:15.919Z,98063.00
2018-10-01T15:44:18.414Z,98059.00
2018-10-01T15:48:20.851Z,98065.00
2018-10-01T15:52:23.263Z,98057.00
2018-10-01T15:56:25.558Z,98064.00
2018-10-01T16:00:27.902Z,98069.00
2018-10-01T16:04:30.280Z,98076.00
2018-10-01T16:08:32.593Z,98078.00
2018-10-01T16:12:34.929Z,98082.00
2018-10-01T16:16:37.375Z,98076.00
2018-10-01T16:20:39.814Z,98090.00
2018-10-01T16:24:42.384Z,98090.00
2018-10-01T16:28:44.844Z,98090.00
2018-10-01T16:32:47.214Z,98100.00
2018-10-01T16:36:49.694Z,98098.00
2018-10-01T16:40:52.347Z,98110.00
2018-10-01T16:44:55.179Z,98111.00
2018-10-01T16:48:57.568Z,98120.00
2018-10-01T16:52:59.948Z,98124.00
2018-10-01T16:57:02.971Z,98131.00
2018-10-01T17:01:05.374Z,98126.00
2018-10-01T17:05:07.881Z,98135.00
2018-10-01T17:09:10.269Z,98148.00
2018-10-01T17:13:12.761Z,98163.00
2018-10-01T17:17:15.041Z,98158.00
2018-10-01T17:21:17.418Z,98178.00
2018-10-01T17:25:19.781Z,98184.00
2018-10-01T17:29:22.202Z,98189.00
2018-10-01T17:34:54.044Z,98197.00
2018-10-01T17:38:56.455Z,98198.00
2018-10-01T17:42:59.855Z,98214.00
2018-10-01T17:47:02.586Z,98202.00
2018-10-01T17:51:04.992Z,98213.00
2018-10-01T17:55:07.559Z,98220.00
2018-10-01T17:59:10.032Z,98228.00
2018-10-01T18:03:12.523Z,98242.00
2018-10-01T18:07:14.952Z,98248.00
2018-10-01T18:11:17.411Z,98256.00
2018-10-01T18:15:19.888Z,98262.00
2018-10-01T18:19:22.363Z,98266.00
2018-10-01T18:23:24.817Z,98270.00
2018-10-01T18:27:27.204Z,98266.00
2018-10-01T18:31:29.601Z,98266.00
2018-10-01T18:35:32.013Z,98279.00
2018-10-01T18:39:34.407Z,98279.00
2018-10-01T18:43:36.885Z,98282.00
2018-10-01T18:47:39.167Z,98286.00
2018-10-01T18:51:41.611Z,98280.00
2018-10-01T18:55:43.971Z,98280.00
2018-10-01T18:59:46.398Z,98278.00
2018-10-01T19:03:48.775Z,98280.00
2018-10-01T19:07:51.261Z,98287.00
2018-10-01T19:11:53.816Z,98288.00
2018-10-01T19:15:56.090Z,98287.00
2018-10-01T19:19:58.492Z,98297.00
2018-10-01T19:24:01.008Z,98308.00
2018-10-01T19:28:03.357Z,98304.00
2018-10-01T19:32:05.778Z,98306.00
2018-10-01T19:36:08.277Z,98300.00
2018-10-01T19:40:10.630Z,98312.00
2018-10-01T19:44:13.347Z,98302.00
2018-10-01T19:48:15.741Z,98318.00
2018-10-01T19:52:18.117Z,98317.00
2018-10-01T19:56:20.534Z,98327.00
2018-10-01T20:00:23.257Z,98317.00
2018-10-01T20:04:25.781Z,98328.00
2018-10-01T20:08:28.581Z,98336.00
2018-10-01T20:12:32.956Z,98325.00
2018-10-01T20:16:35.645Z,98335.00
2018-10-01T20:20:38.335Z,98336.00
2018-10-01T20:24:40.836Z,98317.00
2018-10-01T20:28:43.599Z,98335.00
2018-10-01T20:32:45.740Z,98333.00
2018-10-01T20:36:48.110Z,98339.00
2018-10-01T20:40:50.469Z,98343.00
2018-10-01T20:44:52.862Z,98333.00
2018-10-01T20:48:55.185Z,98343.00
2018-10-01T20:52:57.631Z,98347.00
2018-10-01T20:56:59.937Z,98348.00
2018-10-01T21:01:02.263Z,98359.00
2018-10-01T21:05:04.897Z,98366.00
2018-10-01T21:09:09.170Z,98371.00
2018-10-01T21:13:11.500Z,98374.00
2018-10-01T21:17:13.776Z,98376.00
2018-10-01T21:21:16.092Z,98372.00
2018-10-01T21:25:19.189Z,98374.00
2018-10-01T21:29:21.891Z,98363.00
2018-10-01T21:33:24.566Z,98375.00
2018-10-01T21:37:27.373Z,98381.00
2018-10-01T21:41:30.046Z,98379.00
2018-10-01T21:45:36.769Z,98372.00
2018-10-01T21:49:39.426Z,98369.00
2018-10-01T21:53:41.726Z,98365.00
2018-10-01T21:57:44.049Z,98370.00
2018-10-01T22:01:46.387Z,98374.00
2018-10-01T22:05:48.732Z,98367.00
2018-10-01T22:09:51.071Z,98366.00
2018-10-01T22:13:53.402Z,98371.00
2018-10-01T22:17:55.690Z,98372.00
2018-10-01T22:21:58.775Z,98371.00
2018-10-01T22:26:01.126Z,98374.00
2018-10-01T22:30:03.470Z,98375.00
2018-10-01T22:34:05.972Z,98382.00
2018-10-01T22:38:08.303Z,98370.00
2018-10-01T22:42:10.579Z,98360.00
2018-10-01T22:46:12.948Z,98356.00
2018-10-01T22:50:15.247Z,98358.00
2018-10-01T22:54:17.531Z,98367.00
2018-10-01T22:58:19.809Z,98362.00
2018-10-01T23:02:22.110Z,98365.00
2018-10-01T23:06:24.554Z,98365.00
2018-10-01T23:10:27.750Z,98362.00
2018-10-01T23:14:30.099Z,98361.00
2018-10-01T23:18:32.666Z,98364.00
2018-10-01T23:22:34.936Z,98363.00
2018-10-01T23:26:37.270Z,98362.00
2018-10-01T23:30:39.567Z,98372.00
2018-10-01T23:34:41.944Z,98362.00
2018-10-01T23:38:44.256Z,98370.00
2018-10-01T23:42:46.557Z,98373.00
2018-10-01T23:46:48.832Z,98364.00
2018-10-01T23:50:51.190Z,98365.00
2018-10-01T23:54:53.505Z,98369.00
2018-10-01T23:58:55.934Z,98380.00
